Time;durP1;ratioP1;P1;durP2;ratioP2;P2;SDS_P1;SDS_P2;PMS_P1;PMS_P2;Temp;Humidity;BMP_temperature;BMP_pressure;BME280_temperature;BME280_humidity;BME280_pressure;Samples;Min_cycle;Max_cycle;Signal;HPM_P1;HPM_P2
2022/03/03 00:01:55;;;;;;;16.97;12.40;;;;;;;;;;5052734;28;20505;-58
2022/03/03 00:04:21;;;;;;;18.17;12.10;;;;;;;;;;5052295;28;20865;-57
2022/03/03 00:06:47;;;;;;;16.93;12.80;;;;;;;;;;5052421;28;20510;-57
2022/03/03 00:09:13;;;;;;;17.03;12.40;;;;;;;;;;5052246;28;20631;-56
2022/03/03 00:11:40;;;;;;;18.70;12.90;;;;;;;;;;5052445;28;20431;-57
2022/03/03 00:14:06;;;;;;;17.20;12.87;;;;;;;;;;5050774;28;20204;-55
2022/03/03 00:16:32;;;;;;;17.30;13.17;;;;;;;;;;5052196;28;20445;-55
2022/03/03 00:18:59;;;;;;;17.73;13.40;;;;;;;;;;5052586;28;20483;-56
2022/03/03 00:21:25;;;;;;;17.50;13.80;;;;;;;;;;5052256;28;20267;-56
2022/03/03 00:23:51;;;;;;;16.07;12.70;;;;;;;;;;5052250;28;20470;-56
2022/03/03 00:26:17;;;;;;;16.17;12.83;;;;;;;;;;5052093;28;20474;-57
2022/03/03 00:28:44;;;;;;;18.20;12.90;;;;;;;;;;5052107;28;20442;-56
2022/03/03 00:31:10;;;;;;;15.93;12.00;;;;;;;;;;5052224;28;20504;-55
2022/03/03 00:33:36;;;;;;;14.40;11.10;;;;;;;;;;5051905;28;20442;-57
2022/03/03 00:36:03;;;;;;;16.37;12.30;;;;;;;;;;5052022;28;20940;-56
2022/03/03 00:38:29;;;;;;;14.17;11.37;;;;;;;;;;5052033;28;20478;-56
2022/03/03 00:40:55;;;;;;;17.63;13.07;;;;;;;;;;5051844;28;20933;-57
2022/03/03 00:43:21;;;;;;;14.70;11.77;;;;;;;;;;5051887;28;20449;-55
2022/03/03 00:45:48;;;;;;;15.73;12.57;;;;;;;;;;5052029;28;20254;-55
2022/03/03 00:48:14;;;;;;;15.07;12.73;;;;;;;;;;5052009;28;20443;-56
2022/03/03 00:50:40;;;;;;;16.43;11.93;;;;;;;;;;5051809;28;20466;-56
2022/03/03 00:53:06;;;;;;;16.37;13.13;;;;;;;;;;5051606;28;20488;-56
2022/03/03 00:55:32;;;;;;;13.63;12.23;;;;;;;;;;5051728;28;20439;-56
2022/03/03 00:57:58;;;;;;;16.97;12.03;;;;;;;;;;5051686;28;20235;-57
2022/03/03 01:00:24;;;;;;;14.07;11.87;;;;;;;;;;5051588;28;20462;-57
2022/03/03 01:02:52;;;;;;;16.60;12.33;;;;;;;;;;5051000;28;20483;-56
2022/03/03 01:05:18;;;;;;;16.43;12.83;;;;;;;;;;5051751;28;20206;-56
2022/03/03 01:07:44;;;;;;;16.60;12.20;;;;;;;;;;5051499;28;20805;-56
2022/03/03 01:10:11;;;;;;;19.50;13.00;;;;;;;;;;5051319;28;20427;-56
2022/03/03 01:12:37;;;;;;;19.57;12.93;;;;;;;;;;5051431;28;20665;-57
2022/03/03 01:15:03;;;;;;;15.70;12.63;;;;;;;;;;5051567;28;20473;-56
2022/03/03 01:17:30;;;;;;;15.20;11.83;;;;;;;;;;5051582;28;20452;-56
2022/03/03 01:19:57;;;;;;;15.13;12.37;;;;;;;;;;5051401;28;20521;-55
2022/03/03 01:22:23;;;;;;;15.40;12.37;;;;;;;;;;5051370;28;20435;-57
2022/03/03 01:24:49;;;;;;;14.07;11.77;;;;;;;;;;5051164;28;21002;-56
2022/03/03 01:27:15;;;;;;;15.57;11.90;;;;;;;;;;5051403;28;20244;-56
2022/03/03 01:29:41;;;;;;;15.30;12.30;;;;;;;;;;5051291;28;20224;-56
2022/03/03 01:32:07;;;;;;;15.90;11.67;;;;;;;;;;5051355;28;20204;-57
2022/03/03 01:34:34;;;;;;;14.93;12.43;;;;;;;;;;5051456;28;20453;-55
2022/03/03 01:37:01;;;;;;;15.23;12.27;;;;;;;;;;5051442;28;20438;-56
2022/03/03 01:39:27;;;;;;;13.87;12.07;;;;;;;;;;5051244;28;20533;-56
2022/03/03 01:41:53;;;;;;;15.97;12.00;;;;;;;;;;5051438;28;20439;-55
2022/03/03 01:44:23;;;;;;;15.17;11.73;;;;;;;;;;5051288;28;20196;-56
2022/03/03 01:46:49;;;;;;;14.17;12.10;;;;;;;;;;5051068;28;20443;-57
2022/03/03 01:49:15;;;;;;;15.53;12.70;;;;;;;;;;5051323;28;20470;-56
2022/03/03 01:51:41;;;;;;;15.67;11.87;;;;;;;;;;5051190;28;20431;-56
2022/03/03 01:54:08;;;;;;;16.80;12.23;;;;;;;;;;5051101;28;20610;-56
2022/03/03 01:56:35;;;;;;;17.13;12.83;;;;;;;;;;5051032;28;20687;-55
2022/03/03 01:59:01;;;;;;;16.13;12.10;;;;;;;;;;5051184;28;21083;-56
2022/03/03 02:01:27;;;;;;;16.80;11.73;;;;;;;;;;5051169;28;20430;-56
2022/03/03 02:03:53;;;;;;;14.83;11.67;;;;;;;;;;5051061;28;20450;-56
2022/03/03 02:06:19;;;;;;;15.67;12.40;;;;;;;;;;5051104;28;20453;-56
2022/03/03 02:08:45;;;;;;;14.80;11.93;;;;;;;;;;5051008;28;20430;-56
2022/03/03 02:11:13;;;;;;;14.03;11.97;;;;;;;;;;5051110;28;20620;-56
2022/03/03 02:13:39;;;;;;;16.53;11.83;;;;;;;;;;5050935;28;20200;-56
2022/03/03 02:16:10;;;;;;;13.67;11.67;;;;;;;;;;5054497;28;20855;-56
2022/03/03 02:18:39;;;;;;;17.90;13.23;;;;;;;;;;5054669;28;20620;-56
2022/03/03 02:21:09;;;;;;;15.97;12.60;;;;;;;;;;5054796;28;20461;-57
2022/03/03 02:23:36;;;;;;;17.97;12.83;;;;;;;;;;5054481;28;20949;-56
2022/03/03 02:26:02;;;;;;;17.03;13.13;;;;;;;;;;5054731;28;20549;-57
2022/03/03 02:28:28;;;;;;;17.37;13.00;;;;;;;;;;5054550;28;20543;-57
2022/03/03 02:30:55;;;;;;;15.43;12.97;;;;;;;;;;5054425;28;20455;-57
2022/03/03 02:33:21;;;;;;;16.90;14.07;;;;;;;;;;5054616;28;20592;-57
2022/03/03 02:35:47;;;;;;;16.20;12.93;;;;;;;;;;5054393;28;20470;-56
2022/03/03 02:38:17;;;;;;;16.83;12.57;;;;;;;;;;5054388;28;20217;-57
2022/03/03 02:40:43;;;;;;;18.77;13.30;;;;;;;;;;5054356;28;20431;-56
2022/03/03 02:43:09;;;;;;;19.90;13.80;;;;;;;;;;5054308;28;20439;-56
2022/03/03 02:45:35;;;;;;;18.20;14.07;;;;;;;;;;5054138;28;20423;-56
2022/03/03 02:48:01;;;;;;;17.60;13.80;;;;;;;;;;5054376;28;20449;-56
2022/03/03 02:50:28;;;;;;;17.77;13.77;;;;;;;;;;5054342;28;20939;-57
2022/03/03 02:52:57;;;;;;;16.97;14.23;;;;;;;;;;5054210;28;20654;-55
2022/03/03 02:55:24;;;;;;;17.60;14.63;;;;;;;;;;5054168;28;20435;-57
2022/03/03 02:57:53;;;;;;;18.17;14.47;;;;;;;;;;5053929;28;20454;-56
2022/03/03 03:00:19;;;;;;;19.20;15.00;;;;;;;;;;5053931;28;20430;-56
2022/03/03 03:02:45;;;;;;;19.20;15.10;;;;;;;;;;5053969;28;20470;-56
2022/03/03 03:05:11;;;;;;;19.87;14.33;;;;;;;;;;5054105;28;20470;-56
2022/03/03 03:07:37;;;;;;;18.77;14.80;;;;;;;;;;5053766;28;20238;-56
2022/03/03 03:10:04;;;;;;;21.07;14.77;;;;;;;;;;5053821;28;20484;-57
2022/03/03 03:12:31;;;;;;;19.70;15.20;;;;;;;;;;5053899;28;20443;-56
2022/03/03 03:14:57;;;;;;;19.00;14.33;;;;;;;;;;5053832;28;20442;-56
2022/03/03 03:17:23;;;;;;;18.57;14.23;;;;;;;;;;5053531;28;20539;-56
2022/03/03 03:19:49;;;;;;;19.53;13.37;;;;;;;;;;5053478;28;20502;-56
2022/03/03 03:22:15;;;;;;;19.03;13.90;;;;;;;;;;5053671;28;20471;-56
2022/03/03 03:24:41;;;;;;;19.13;14.30;;;;;;;;;;5053066;28;20243;-56
2022/03/03 03:27:07;;;;;;;20.00;14.80;;;;;;;;;;5053112;28;20764;-56
2022/03/03 03:29:35;;;;;;;19.93;14.23;;;;;;;;;;5053468;28;20202;-56
2022/03/03 03:32:01;;;;;;;18.27;14.60;;;;;;;;;;5053573;28;20443;-56
2022/03/03 03:34:27;;;;;;;18.60;14.33;;;;;;;;;;5053482;28;20500;-55
2022/03/03 03:36:53;;;;;;;20.03;14.80;;;;;;;;;;5053303;28;20438;-56
2022/03/03 03:39:19;;;;;;;18.00;14.33;;;;;;;;;;5053144;28;20885;-56
2022/03/03 03:41:45;;;;;;;21.20;14.77;;;;;;;;;;5053263;28;20204;-56
2022/03/03 03:44:12;;;;;;;21.60;15.43;;;;;;;;;;5052988;28;20204;-56
2022/03/03 03:46:40;;;;;;;21.10;15.43;;;;;;;;;;5053048;28;20936;-56
2022/03/03 03:49:06;;;;;;;21.80;15.30;;;;;;;;;;5053149;28;20551;-56
2022/03/03 03:51:32;;;;;;;21.07;14.73;;;;;;;;;;5052938;28;20481;-56
2022/03/03 03:54:01;;;;;;;21.23;15.83;;;;;;;;;;5053093;28;20438;-56
2022/03/03 03:56:27;;;;;;;21.80;15.77;;;;;;;;;;5053026;28;20505;-56
2022/03/03 03:58:53;;;;;;;22.13;16.77;;;;;;;;;;5052688;28;20564;-55
2022/03/03 04:01:19;;;;;;;19.67;15.30;;;;;;;;;;5052748;28;20848;-56
2022/03/03 04:03:47;;;;;;;21.77;16.27;;;;;;;;;;5052817;28;20449;-56
2022/03/03 04:06:13;;;;;;;21.07;15.67;;;;;;;;;;5052860;28;20682;-55
2022/03/03 04:08:39;;;;;;;19.13;15.50;;;;;;;;;;5052540;28;20475;-56
2022/03/03 04:11:06;;;;;;;22.57;15.20;;;;;;;;;;5052568;28;20474;-57
2022/03/03 04:13:32;;;;;;;22.00;16.00;;;;;;;;;;5052646;28;20211;-56
2022/03/03 04:15:57;;;;;;;22.03;15.67;;;;;;;;;;5052687;28;20438;-57
2022/03/03 04:18:24;;;;;;;19.43;15.87;;;;;;;;;;5052373;28;20474;-56
2022/03/03 04:20:51;;;;;;;22.13;16.23;;;;;;;;;;5052295;28;20224;-57
2022/03/03 04:23:19;;;;;;;20.57;16.13;;;;;;;;;;5052399;28;20528;-57
2022/03/03 04:25:45;;;;;;;21.83;16.47;;;;;;;;;;5052241;28;20505;-56
2022/03/03 04:28:11;;;;;;;19.53;15.47;;;;;;;;;;5052330;28;20485;-56
2022/03/03 04:30:37;;;;;;;21.63;15.80;;;;;;;;;;5052259;28;20435;-56
2022/03/03 04:33:03;;;;;;;22.97;16.33;;;;;;;;;;5052238;28;20592;-56
2022/03/03 04:35:29;;;;;;;19.93;15.57;;;;;;;;;;5052346;28;20945;-56
2022/03/03 04:37:56;;;;;;;20.03;15.60;;;;;;;;;;5051181;28;20218;-56
2022/03/03 04:40:22;;;;;;;19.90;15.80;;;;;;;;;;5052008;28;20228;-56
2022/03/03 04:42:51;;;;;;;20.97;15.13;;;;;;;;;;5051998;28;20439;-56
2022/03/03 04:45:18;;;;;;;23.73;16.60;;;;;;;;;;5052058;28;20517;-56
2022/03/03 04:47:44;;;;;;;27.97;16.27;;;;;;;;;;5052054;28;20442;-56
2022/03/03 04:50:10;;;;;;;29.43;16.50;;;;;;;;;;5051816;28;20878;-56
2022/03/03 04:52:36;;;;;;;22.33;16.07;;;;;;;;;;5051753;28;20563;-56
2022/03/03 04:55:04;;;;;;;23.33;16.83;;;;;;;;;;5051842;28;20504;-56
2022/03/03 04:57:31;;;;;;;22.60;17.50;;;;;;;;;;5052078;28;20431;-56
2022/03/03 04:59:57;;;;;;;23.97;17.57;;;;;;;;;;5051720;28;21128;-56
2022/03/03 05:02:23;;;;;;;24.17;17.37;;;;;;;;;;5051740;28;21205;-56
2022/03/03 05:04:49;;;;;;;25.23;17.50;;;;;;;;;;5051672;28;20430;-56
2022/03/03 05:07:15;;;;;;;24.27;16.67;;;;;;;;;;5051806;28;20478;-56
2022/03/03 05:09:41;;;;;;;24.50;18.23;;;;;;;;;;5051461;28;20979;-56
2022/03/03 05:12:09;;;;;;;25.20;18.37;;;;;;;;;;5051491;28;20606;-56
2022/03/03 05:14:35;;;;;;;23.93;16.97;;;;;;;;;;5051368;28;20846;-56
2022/03/03 05:17:01;;;;;;;22.07;17.93;;;;;;;;;;5051378;28;20438;-56
2022/03/03 05:19:27;;;;;;;31.20;20.13;;;;;;;;;;5051525;28;20250;-56
2022/03/03 05:21:53;;;;;;;24.63;17.60;;;;;;;;;;5051494;28;20195;-56
2022/03/03 05:24:19;;;;;;;24.10;17.87;;;;;;;;;;5051325;28;20220;-56
2022/03/03 05:26:45;;;;;;;27.57;18.80;;;;;;;;;;5051367;28;20520;-56
2022/03/03 05:29:12;;;;;;;25.57;18.70;;;;;;;;;;5051529;28;20215;-56
2022/03/03 05:31:38;;;;;;;32.10;19.93;;;;;;;;;;5051112;28;20200;-56
2022/03/03 05:34:04;;;;;;;27.43;18.60;;;;;;;;;;5051243;28;20870;-56
2022/03/03 05:36:30;;;;;;;27.97;19.77;;;;;;;;;;5051275;28;20509;-56
2022/03/03 05:38:57;;;;;;;28.60;19.60;;;;;;;;;;5051317;28;20263;-56
2022/03/03 05:41:24;;;;;;;28.67;20.97;;;;;;;;;;5051331;28;20812;-56
2022/03/03 05:43:50;;;;;;;28.30;21.80;;;;;;;;;;5051230;28;20434;-57
2022/03/03 05:46:17;;;;;;;27.73;19.73;;;;;;;;;;5051342;28;20461;-56
2022/03/03 05:48:43;;;;;;;27.57;20.77;;;;;;;;;;5052752;28;20841;-56
2022/03/03 05:51:10;;;;;;;30.67;20.90;;;;;;;;;;5055395;28;20480;-56
2022/03/03 05:53:36;;;;;;;30.23;20.80;;;;;;;;;;5055133;28;21201;-56
2022/03/03 05:56:06;;;;;;;30.83;21.80;;;;;;;;;;5055221;28;20453;-56
2022/03/03 05:58:37;;;;;;;32.97;22.40;;;;;;;;;;5055231;28;20223;-56
2022/03/03 06:01:03;;;;;;;31.73;22.17;;;;;;;;;;5054860;28;20936;-57
2022/03/03 06:03:31;;;;;;;32.50;22.20;;;;;;;;;;5055059;28;20437;-55
2022/03/03 06:05:59;;;;;;;31.80;22.43;;;;;;;;;;5054944;28;20645;-56
2022/03/03 06:08:30;;;;;;;37.13;23.50;;;;;;;;;;5054845;28;20454;-56
2022/03/03 06:11:00;;;;;;;32.30;24.07;;;;;;;;;;5054647;28;20453;-56
2022/03/03 06:13:28;;;;;;;34.23;23.00;;;;;;;;;;5054622;28;20443;-55
2022/03/03 06:15:54;;;;;;;34.87;23.90;;;;;;;;;;5054424;28;20853;-56
2022/03/03 06:18:24;;;;;;;33.43;23.67;;;;;;;;;;5054343;28;20934;-56
2022/03/03 06:20:52;;;;;;;36.13;23.53;;;;;;;;;;5053791;28;20529;-56
2022/03/03 06:23:18;;;;;;;34.10;23.80;;;;;;;;;;5054752;28;20479;-55
2022/03/03 06:25:44;;;;;;;36.73;23.83;;;;;;;;;;5054457;28;20479;-56
2022/03/03 06:28:10;;;;;;;40.33;24.83;;;;;;;;;;5054738;28;20446;-56
2022/03/03 06:30:36;;;;;;;38.03;24.57;;;;;;;;;;5054421;28;20438;-56
2022/03/03 06:33:03;;;;;;;36.90;25.47;;;;;;;;;;5054305;28;20501;-56
2022/03/03 06:35:35;;;;;;;39.97;26.90;;;;;;;;;;5054424;28;20441;-55
2022/03/03 06:38:03;;;;;;;44.70;29.23;;;;;;;;;;5054291;28;20481;-55
2022/03/03 06:40:29;;;;;;;37.13;26.60;;;;;;;;;;5054234;28;20490;-55
2022/03/03 06:43:00;;;;;;;40.63;26.73;;;;;;;;;;5054209;28;20434;-55
2022/03/03 06:45:26;;;;;;;39.60;24.83;;;;;;;;;;5054390;28;20447;-56
2022/03/03 06:47:53;;;;;;;39.30;25.57;;;;;;;;;;5053770;28;20521;-56
2022/03/03 06:50:19;;;;;;;39.80;27.00;;;;;;;;;;5053622;28;21002;-55
2022/03/03 06:52:47;;;;;;;39.50;25.70;;;;;;;;;;5053871;28;20508;-56
2022/03/03 06:55:17;;;;;;;38.83;25.50;;;;;;;;;;5054064;28;20204;-56
2022/03/03 06:57:43;;;;;;;37.30;25.10;;;;;;;;;;5053810;28;20439;-56
2022/03/03 07:00:11;;;;;;;37.40;25.13;;;;;;;;;;5053113;28;20489;-56
2022/03/03 07:02:37;;;;;;;40.13;25.23;;;;;;;;;;5053940;28;20200;-56
2022/03/03 07:05:04;;;;;;;37.73;24.20;;;;;;;;;;5053903;28;20441;-56
2022/03/03 07:07:31;;;;;;;36.60;24.87;;;;;;;;;;5053805;28;20811;-56
2022/03/03 07:09:57;;;;;;;37.77;25.10;;;;;;;;;;5025660;28;20443;-56
2022/03/03 07:12:27;;;;;;;36.97;24.80;;;;;;;;;;5013862;28;20838;-56
2022/03/03 07:14:53;;;;;;;38.63;24.47;;;;;;;;;;5013472;28;21262;-57
2022/03/03 07:17:29;;;;;;;41.20;26.67;;;;;;;;;;5013810;28;20437;-56
2022/03/03 07:20:02;;;;;;;43.90;27.10;;;;;;;;;;5013613;28;20315;-56
2022/03/03 07:22:33;;;;;;;40.33;25.87;;;;;;;;;;5014065;28;20928;-56
2022/03/03 07:25:02;;;;;;;37.93;26.57;;;;;;;;;;5014080;28;20518;-56
2022/03/03 07:27:30;;;;;;;39.60;27.60;;;;;;;;;;5013689;28;20989;-56
2022/03/03 07:29:56;;;;;;;42.23;28.23;;;;;;;;;;5013627;28;20440;-56
2022/03/03 07:32:26;;;;;;;43.13;28.47;;;;;;;;;;5013636;28;20787;-55
2022/03/03 07:34:57;;;;;;;43.17;27.83;;;;;;;;;;5013467;28;20448;-54
2022/03/03 07:37:25;;;;;;;41.70;27.53;;;;;;;;;;5013648;28;20527;-55
2022/03/03 07:39:53;;;;;;;40.83;27.17;;;;;;;;;;5013350;28;20492;-55
2022/03/03 07:42:19;;;;;;;44.17;28.20;;;;;;;;;;5013505;28;20507;-55
2022/03/03 07:44:47;;;;;;;40.23;27.57;;;;;;;;;;5013190;28;20449;-55
2022/03/03 07:47:13;;;;;;;42.67;27.50;;;;;;;;;;5013422;28;20444;-55
2022/03/03 07:49:41;;;;;;;41.90;27.70;;;;;;;;;;5013181;28;20800;-54
2022/03/03 07:52:07;;;;;;;41.87;28.57;;;;;;;;;;5013422;28;20243;-57
2022/03/03 07:54:33;;;;;;;37.17;26.13;;;;;;;;;;5013100;28;20516;-56
2022/03/03 07:57:01;;;;;;;37.60;25.43;;;;;;;;;;5011526;28;20503;-56
2022/03/03 07:59:27;;;;;;;37.50;26.73;;;;;;;;;;5011422;28;20530;-56
2022/03/03 08:01:56;;;;;;;36.73;26.20;;;;;;;;;;5013133;28;20429;-56
2022/03/03 08:04:26;;;;;;;36.60;27.10;;;;;;;;;;5013016;28;20444;-56
2022/03/03 08:06:55;;;;;;;36.83;25.93;;;;;;;;;;5011343;28;20923;-55
2022/03/03 08:09:23;;;;;;;33.60;24.60;;;;;;;;;;5013041;28;20805;-55
2022/03/03 08:11:51;;;;;;;41.00;25.77;;;;;;;;;;5012922;28;20433;-55
2022/03/03 08:14:17;;;;;;;39.40;26.70;;;;;;;;;;5012870;28;20450;-55
2022/03/03 08:16:45;;;;;;;35.50;25.10;;;;;;;;;;5012890;28;20476;-56
2022/03/03 08:19:13;;;;;;;36.70;26.30;;;;;;;;;;5012867;28;20487;-57
2022/03/03 08:21:39;;;;;;;37.27;26.30;;;;;;;;;;5012821;28;20437;-57
2022/03/03 08:24:06;;;;;;;38.27;26.90;;;;;;;;;;5012546;28;20463;-54
2022/03/03 08:26:33;;;;;;;36.10;25.43;;;;;;;;;;5012583;28;20487;-56
2022/03/03 08:28:59;;;;;;;36.00;25.93;;;;;;;;;;5012628;28;20440;-53
2022/03/03 08:31:28;;;;;;;38.67;25.87;;;;;;;;;;5012417;28;20447;-55
2022/03/03 08:33:55;;;;;;;35.77;25.17;;;;;;;;;;5012347;28;20201;-55
2022/03/03 08:36:26;;;;;;;34.30;25.13;;;;;;;;;;5012294;28;20439;-56
2022/03/03 08:38:53;;;;;;;34.33;25.40;;;;;;;;;;5012106;28;20563;-57
2022/03/03 08:41:21;;;;;;;33.57;24.00;;;;;;;;;;5012215;28;20911;-56
2022/03/03 08:43:48;;;;;;;32.20;24.13;;;;;;;;;;5012345;28;20441;-52
2022/03/03 08:46:17;;;;;;;36.20;26.07;;;;;;;;;;5012177;28;20898;-54
2022/03/03 08:48:44;;;;;;;32.63;24.60;;;;;;;;;;5012104;28;21022;-57
2022/03/03 08:51:11;;;;;;;36.77;24.93;;;;;;;;;;5012033;28;20498;-57
2022/03/03 08:53:38;;;;;;;38.73;26.17;;;;;;;;;;5012152;28;20197;-57
2022/03/03 08:56:04;;;;;;;34.33;26.30;;;;;;;;;;5012152;28;20193;-57
2022/03/03 08:58:30;;;;;;;33.03;24.87;;;;;;;;;;5012299;28;20193;-57
2022/03/03 09:00:56;;;;;;;34.73;25.33;;;;;;;;;;5011970;28;20263;-58
2022/03/03 09:03:23;;;;;;;32.37;24.77;;;;;;;;;;5011962;28;20517;-56
2022/03/03 09:05:49;;;;;;;32.87;25.43;;;;;;;;;;5011959;28;20635;-57
2022/03/03 09:08:15;;;;;;;36.33;26.10;;;;;;;;;;5012176;28;20344;-57
2022/03/03 09:10:42;;;;;;;38.77;27.33;;;;;;;;;;5011814;28;20205;-57
2022/03/03 09:13:09;;;;;;;33.93;26.30;;;;;;;;;;5012000;28;20210;-57
2022/03/03 09:15:35;;;;;;;35.23;25.23;;;;;;;;;;5011942;28;20616;-57
2022/03/03 09:18:01;;;;;;;38.53;26.30;;;;;;;;;;5012012;28;20201;-58
2022/03/03 09:20:27;;;;;;;36.27;25.37;;;;;;;;;;5011954;28;20320;-56
2022/03/03 09:22:53;;;;;;;35.87;27.00;;;;;;;;;;5011248;28;20192;-57
2022/03/03 09:25:19;;;;;;;33.00;25.47;;;;;;;;;;5011490;28;20660;-57
2022/03/03 09:27:47;;;;;;;32.97;25.83;;;;;;;;;;5011943;28;20224;-58
2022/03/03 09:30:13;;;;;;;35.67;25.03;;;;;;;;;;5010540;28;20367;-57
2022/03/03 09:32:39;;;;;;;30.00;24.83;;;;;;;;;;5011786;28;20542;-57
2022/03/03 09:35:06;;;;;;;29.30;24.03;;;;;;;;;;5011775;28;20217;-57
2022/03/03 09:37:32;;;;;;;27.77;23.70;;;;;;;;;;5011811;28;20217;-57
2022/03/03 09:39:58;;;;;;;32.17;23.97;;;;;;;;;;5011616;28;20239;-57
2022/03/03 09:42:31;;;;;;;28.63;24.50;;;;;;;;;;5011897;28;20300;-58
2022/03/03 09:44:59;;;;;;;28.13;23.53;;;;;;;;;;5011520;28;20205;-58
2022/03/03 09:47:25;;;;;;;25.13;21.60;;;;;;;;;;5011551;28;20212;-57
2022/03/03 09:49:51;;;;;;;23.47;20.70;;;;;;;;;;5011608;28;20664;-57
2022/03/03 09:52:18;;;;;;;25.33;21.60;;;;;;;;;;5011677;28;20201;-56
2022/03/03 09:54:47;;;;;;;24.00;21.07;;;;;;;;;;5011543;28;20248;-57
2022/03/03 09:57:15;;;;;;;26.07;22.67;;;;;;;;;;5011873;28;20570;-57
2022/03/03 09:59:41;;;;;;;22.07;19.60;;;;;;;;;;5011475;28;20237;-58
2022/03/03 10:02:09;;;;;;;27.17;22.47;;;;;;;;;;5011612;28;20214;-57
2022/03/03 10:04:38;;;;;;;24.77;22.07;;;;;;;;;;5011501;28;20200;-57
2022/03/03 10:07:05;;;;;;;25.43;22.53;;;;;;;;;;5011609;28;20215;-58
2022/03/03 10:09:31;;;;;;;26.33;22.00;;;;;;;;;;5011618;28;20192;-58
2022/03/03 10:12:01;;;;;;;23.83;21.00;;;;;;;;;;5011305;28;20255;-58
2022/03/03 10:14:29;;;;;;;26.10;21.23;;;;;;;;;;5010187;28;20206;-56
2022/03/03 10:16:55;;;;;;;26.73;19.80;;;;;;;;;;5011202;28;20259;-57
2022/03/03 10:19:22;;;;;;;22.83;19.07;;;;;;;;;;5011229;28;20227;-57
2022/03/03 10:21:49;;;;;;;21.90;18.10;;;;;;;;;;5011185;28;20193;-58
2022/03/03 10:24:16;;;;;;;19.70;17.27;;;;;;;;;;5011340;28;20295;-58
2022/03/03 10:26:44;;;;;;;19.90;17.10;;;;;;;;;;5011125;28;20241;-57
2022/03/03 10:29:17;;;;;;;17.43;15.63;;;;;;;;;;5011391;28;20263;-57
2022/03/03 10:31:47;;;;;;;15.57;13.97;;;;;;;;;;5011334;28;20198;-58
2022/03/03 10:34:16;;;;;;;14.93;13.33;;;;;;;;;;5011227;28;20231;-57
2022/03/03 10:36:43;;;;;;;15.53;13.53;;;;;;;;;;5013908;28;20194;-58
2022/03/03 10:39:09;;;;;;;16.30;14.60;;;;;;;;;;5014535;28;20229;-57
2022/03/03 10:41:37;;;;;;;15.20;13.70;;;;;;;;;;5014637;28;20268;-59
2022/03/03 10:44:04;;;;;;;15.47;13.87;;;;;;;;;;5014514;28;20198;-57
2022/03/03 10:46:31;;;;;;;16.80;12.63;;;;;;;;;;5014747;28;20758;-58
2022/03/03 10:48:57;;;;;;;14.10;12.60;;;;;;;;;;5014171;28;20190;-57
2022/03/03 10:51:24;;;;;;;13.20;11.90;;;;;;;;;;5014639;28;20441;-57
2022/03/03 10:53:54;;;;;;;14.03;12.13;;;;;;;;;;5014422;28;20214;-57
2022/03/03 10:56:20;;;;;;;14.53;12.90;;;;;;;;;;5014560;28;20208;-57
2022/03/03 10:58:48;;;;;;;14.43;12.60;;;;;;;;;;5014352;28;20202;-57
2022/03/03 11:01:14;;;;;;;13.30;11.90;;;;;;;;;;5014539;28;20255;-58
2022/03/03 11:03:41;;;;;;;15.43;13.83;;;;;;;;;;5014315;28;20617;-58
2022/03/03 11:06:16;;;;;;;15.17;13.60;;;;;;;;;;5014152;28;20644;-57
2022/03/03 11:08:42;;;;;;;14.47;12.97;;;;;;;;;;5013995;28;20656;-57
2022/03/03 11:11:10;;;;;;;14.47;12.97;;;;;;;;;;5014096;28;20252;-57
2022/03/03 11:13:36;;;;;;;14.70;13.20;;;;;;;;;;5014174;28;20216;-58
2022/03/03 11:16:03;;;;;;;16.67;13.30;;;;;;;;;;5013958;28;20208;-56
2022/03/03 11:18:29;;;;;;;16.93;14.37;;;;;;;;;;5014075;28;20565;-56
2022/03/03 11:20:55;;;;;;;15.93;14.33;;;;;;;;;;5013567;28;20222;-57
2022/03/03 11:23:21;;;;;;;15.70;14.00;;;;;;;;;;5013873;28;20221;-57
2022/03/03 11:25:49;;;;;;;17.83;13.80;;;;;;;;;;5013705;28;20268;-57
2022/03/03 11:28:18;;;;;;;15.90;14.30;;;;;;;;;;5014057;28;20208;-57
2022/03/03 11:30:46;;;;;;;19.10;15.50;;;;;;;;;;5013899;28;20208;-57
2022/03/03 11:33:20;;;;;;;16.53;14.73;;;;;;;;;;5013894;28;20202;-58
2022/03/03 11:35:47;;;;;;;17.30;15.40;;;;;;;;;;5013682;28;20213;-57
2022/03/03 11:38:13;;;;;;;16.63;14.83;;;;;;;;;;5012326;28;20624;-56
2022/03/03 11:40:50;;;;;;;18.13;16.23;;;;;;;;;;5012197;28;20258;-57
2022/03/03 11:43:17;;;;;;;20.33;15.90;;;;;;;;;;5013324;28;20202;-57
2022/03/03 11:45:49;;;;;;;17.57;15.63;;;;;;;;;;5012941;28;20615;-57
2022/03/03 11:48:16;;;;;;;17.23;15.03;;;;;;;;;;5013266;28;20199;-58
2022/03/03 11:50:42;;;;;;;17.37;15.00;;;;;;;;;;5013020;28;20199;-58
2022/03/03 11:53:18;;;;;;;17.93;15.03;;;;;;;;;;5013044;28;20280;-57
2022/03/03 11:55:47;;;;;;;19.07;15.73;;;;;;;;;;5012997;28;20702;-56
2022/03/03 11:58:15;;;;;;;14.00;12.60;;;;;;;;;;5013064;28;20257;-57
2022/03/03 12:00:43;;;;;;;11.97;10.57;;;;;;;;;;5012672;28;20764;-57
2022/03/03 12:03:10;;;;;;;12.07;9.70;;;;;;;;;;5012820;28;20209;-57
2022/03/03 12:05:37;;;;;;;10.60;9.07;;;;;;;;;;5012692;28;20197;-57
2022/03/03 12:08:05;;;;;;;13.83;10.93;;;;;;;;;;5012402;28;20221;-57
2022/03/03 12:10:31;;;;;;;14.37;11.73;;;;;;;;;;5012814;28;20200;-57
2022/03/03 12:13:16;;;;;;;13.70;11.87;;;;;;;;;;5012933;28;20208;-57
2022/03/03 12:16:03;;;;;;;16.33;13.63;;;;;;;;;;5012511;28;20220;-57
2022/03/03 12:18:34;;;;;;;16.60;14.60;;;;;;;;;;5012520;28;20284;-57
2022/03/03 12:21:15;;;;;;;16.70;13.20;;;;;;;;;;5012204;28;20239;-57
2022/03/03 12:23:42;;;;;;;18.30;14.37;;;;;;;;;;5012153;28;20229;-56
2022/03/03 12:26:08;;;;;;;15.97;14.27;;;;;;;;;;5012658;28;20252;-57
2022/03/03 12:28:35;;;;;;;15.77;14.03;;;;;;;;;;5022858;28;20204;-59
2022/03/03 12:31:03;;;;;;;15.17;13.27;;;;;;;;;;5051827;28;20204;-58
2022/03/03 12:33:30;;;;;;;14.93;13.40;;;;;;;;;;5052028;28;20196;-57
2022/03/03 12:35:59;;;;;;;16.27;13.83;;;;;;;;;;5051750;28;20263;-58
2022/03/03 12:38:25;;;;;;;16.70;14.27;;;;;;;;;;5052218;28;20199;-57
2022/03/03 12:40:51;;;;;;;16.33;14.13;;;;;;;;;;5051886;28;20282;-57
2022/03/03 12:43:18;;;;;;;21.03;15.50;;;;;;;;;;5052034;28;20254;-57
2022/03/03 12:45:45;;;;;;;17.47;14.73;;;;;;;;;;5052064;28;20204;-57
2022/03/03 12:48:12;;;;;;;18.20;14.73;;;;;;;;;;5051609;28;20204;-58
2022/03/03 12:50:39;;;;;;;17.47;14.50;;;;;;;;;;5050055;28;20235;-58
2022/03/03 12:53:06;;;;;;;15.00;13.03;;;;;;;;;;5051501;28;20204;-57
2022/03/03 12:55:33;;;;;;;13.47;11.93;;;;;;;;;;5051780;28;20554;-57
2022/03/03 12:58:00;;;;;;;15.40;13.80;;;;;;;;;;5051086;28;20276;-57
2022/03/03 13:00:27;;;;;;;14.50;12.90;;;;;;;;;;5051740;28;20220;-57
2022/03/03 13:02:54;;;;;;;15.23;13.57;;;;;;;;;;5051624;28;20197;-58
2022/03/03 13:05:38;;;;;;;14.13;12.70;;;;;;;;;;5051730;28;20206;-57
2022/03/03 13:08:05;;;;;;;13.87;12.37;;;;;;;;;;5051584;28;20208;-57
2022/03/03 13:10:31;;;;;;;12.50;11.27;;;;;;;;;;5051786;28;20560;-57
2022/03/03 13:12:58;;;;;;;12.87;11.30;;;;;;;;;;5051674;28;20196;-57
2022/03/03 13:15:31;;;;;;;12.33;11.03;;;;;;;;;;5051570;28;20200;-57
2022/03/03 13:17:58;;;;;;;15.80;10.93;;;;;;;;;;5051520;28;20294;-57
2022/03/03 13:20:24;;;;;;;14.40;11.73;;;;;;;;;;5051550;28;20238;-57
2022/03/03 13:22:52;;;;;;;12.90;11.30;;;;;;;;;;5051220;28;20574;-57
2022/03/03 13:25:18;;;;;;;12.00;9.20;;;;;;;;;;5051361;28;20207;-57
2022/03/03 13:27:45;;;;;;;10.23;9.13;;;;;;;;;;5051535;28;20208;-56
2022/03/03 13:30:12;;;;;;;10.63;8.67;;;;;;;;;;5051537;28;20211;-57
2022/03/03 13:32:42;;;;;;;10.47;7.97;;;;;;;;;;5051358;28;20250;-57
2022/03/03 13:35:09;;;;;;;8.53;7.10;;;;;;;;;;5051361;28;20227;-57
2022/03/03 13:37:35;;;;;;;7.60;5.97;;;;;;;;;;5051098;28;20200;-56
2022/03/03 13:40:12;;;;;;;7.70;5.93;;;;;;;;;;5051244;28;20220;-57
2022/03/03 13:42:38;;;;;;;7.53;6.23;;;;;;;;;;5051357;28;20634;-56
2022/03/03 13:45:05;;;;;;;8.13;5.87;;;;;;;;;;5051195;28;20204;-57
2022/03/03 13:47:34;;;;;;;6.60;5.80;;;;;;;;;;5051382;28;20637;-57
2022/03/03 13:50:00;;;;;;;5.70;4.93;;;;;;;;;;5051125;28;20681;-57
2022/03/03 13:52:30;;;;;;;6.03;5.07;;;;;;;;;;5050825;28;20213;-58
2022/03/03 13:55:01;;;;;;;5.17;3.90;;;;;;;;;;5051003;28;20253;-57
2022/03/03 13:57:39;;;;;;;6.10;4.00;;;;;;;;;;5051160;28;20210;-57
2022/03/03 14:00:08;;;;;;;5.03;3.47;;;;;;;;;;5050921;28;20224;-57
2022/03/03 14:02:34;;;;;;;4.87;3.20;;;;;;;;;;5051141;28;20258;-57
2022/03/03 14:05:00;;;;;;;3.80;3.20;;;;;;;;;;5050975;28;20206;-56
2022/03/03 14:07:27;;;;;;;4.10;3.33;;;;;;;;;;5051117;28;20280;-57
2022/03/03 14:09:59;;;;;;;4.47;3.17;;;;;;;;;;5052477;28;20188;-57
2022/03/03 14:12:25;;;;;;;4.03;3.27;;;;;;;;;;5055151;28;20230;-57
2022/03/03 14:14:53;;;;;;;3.83;3.03;;;;;;;;;;5054791;28;20250;-57
2022/03/03 14:17:19;;;;;;;3.57;2.80;;;;;;;;;;5054692;28;20204;-57
2022/03/03 14:19:46;;;;;;;4.73;3.13;;;;;;;;;;5054486;28;20270;-57